Weather Models
Both GFS & NAM
00z 06z 12z 18z
24hr Precip
00z 06z 12z 18z
36hr Simulated radar
00z 06z 12z 18z
SKEWT Soundings
00z 12z
Current Conditions (Updated 3:00pm on 7/7/20)
Temperature
 91°
-0.62
95°  
70°  
0
10
20
30
40
50
60
70
80
90
100
Dew Point
67°
69°  
64°  
-20
-10
0
10
20
30
40
50
60
70
80
Heat Index
95°
101°  
74°  
30
40
50
60
70
80
90
100
110
120
130
Heat Index
Humidity
45%
83% 
43% 
0
10
20
30
40
50
60
70
80
90
100
Barometer
30.04
   Falling
30.10  
30.04  
28.00
28.30
28.60
28.90
29.20
29.50
29.80
30.10
30.40
30.70
31.00
Temperature
Dew Point
Humidity
Pressure
Wind
8mph
  S
Daily Rain
.00
.05
.10
.15
.20
.25
.30
.35
.40
.45
.50
Rain Today
 0.00" 
Month Rain
0.00
0.20
0.40
0.60
0.80
1.00
1.20
1.40
1.60
1.80
2.00
Month Rain
 1.09" 
Year Rain
0.00
2.50
5.00
7.50
10.00
12.50
15.00
17.50
20.00
22.50
25.00
Year Rain
 20.00" 
Sun & Moon Data
Sunrise 5:40am
Sunset 8:33pm
Moonrise 10:42pm
Moonset 7:55am
Moon % 94%
Other Rain Data
Past Hour 0.00 Past 24 Hours 0.32
Past 3 Hours 0.00 Past 7 Days 1.09
Past 6 Hours 0.00
Cloud Height
6077


Current Front Map
Current Satellite map
7 Day Forecast
NWS Forecast for Philadelphia PA
National Weather Service Forecast for: Philadelphia PA
Issued by: National Weather Service Philadelphia, PA
Updated: 10:09 am EDT Jul 7, 2020

Philadelphia
 
This
Afternoon
This Afternoon: A chance of showers and thunderstorms.  Partly sunny, with a high near 88. South wind around 5 mph.  Chance of precipitation is 40%. New rainfall amounts between a tenth and quarter of an inch, except higher amounts possible in thunderstorms.
Chance
T-storms

Tonight

Tonight: A chance of showers and thunderstorms before midnight, then a slight chance of showers after 5am.  Mostly cloudy, with a low around 74. South wind around 5 mph.  Chance of precipitation is 30%. New precipitation amounts of less than a tenth of an inch, except higher amounts possible in thunderstorms.
Chance
T-storms then
Mostly Cloudy
Wednesday

Wednesday: A chance of showers, with thunderstorms also possible after 2pm.  Partly sunny, with a high near 90. South wind around 5 mph.  Chance of precipitation is 40%. New rainfall amounts of less than a tenth of an inch, except higher amounts possible in thunderstorms.
Chance
Showers then
Chance
T-storms
Wednesday
Night
Wednesday Night: Mostly cloudy, with a low around 72. South wind around 5 mph becoming calm  in the evening.
Mostly Cloudy

Thursday

Thursday: A slight chance of showers, with thunderstorms also possible after 2pm.  Mostly sunny, with a high near 91. Calm wind becoming southeast around 5 mph in the afternoon.  Chance of precipitation is 20%.
Slight Chance
Showers then
Slight Chance
T-storms
Thursday
Night
Thursday Night: A slight chance of thunderstorms before 8pm, then a slight chance of showers after 2am.  Mostly cloudy, with a low around 73. Chance of precipitation is 20%.
Partly Cloudy
then Slight
Chance
Showers
Friday

Friday: A chance of thunderstorms before 8am, then a chance of showers and thunderstorms between 8am and 2pm, then showers likely and possibly a thunderstorm after 2pm.  Mostly cloudy, with a high near 85. Chance of precipitation is 60%.
Chance
T-storms then
Showers
Likely
Friday
Night
Friday Night: Showers likely and possibly a thunderstorm before 8pm, then a chance of showers and thunderstorms after 8pm.  Mostly cloudy, with a low around 73. Chance of precipitation is 60%.
Showers
Likely then
Chance
T-storms
Saturday

Saturday: A chance of showers, then showers likely and possibly a thunderstorm after 2pm.  Partly sunny, with a high near 91. Chance of precipitation is 60%.
Chance
Showers then
Showers
Likely
Hi 88 °F Lo 74 °F Hi 90 °F Lo 72 °F Hi 91 °F Lo 73 °F Hi 85 °F Lo 73 °F Hi 91 °F

 

This Afternoon
 
A chance of showers and thunderstorms. Partly sunny, with a high near 88. South wind around 5 mph. Chance of precipitation is 40%. New rainfall amounts between a tenth and quarter of an inch, except higher amounts possible in thunderstorms.
Tonight
 
A chance of showers and thunderstorms before midnight, then a slight chance of showers after 5am. Mostly cloudy, with a low around 74. South wind around 5 mph. Chance of precipitation is 30%. New precipitation amounts of less than a tenth of an inch, except higher amounts possible in thunderstorms.
Wednesday
 
A chance of showers, with thunderstorms also possible after 2pm. Partly sunny, with a high near 90. South wind around 5 mph. Chance of precipitation is 40%. New rainfall amounts of less than a tenth of an inch, except higher amounts possible in thunderstorms.
Wednesday Night
 
Mostly cloudy, with a low around 72. South wind around 5 mph becoming calm in the evening.
Thursday
 
A slight chance of showers, with thunderstorms also possible after 2pm. Mostly sunny, with a high near 91. Calm wind becoming southeast around 5 mph in the afternoon. Chance of precipitation is 20%.
Thursday Night
 
A slight chance of thunderstorms before 8pm, then a slight chance of showers after 2am. Mostly cloudy, with a low around 73. Chance of precipitation is 20%.
Friday
 
A chance of thunderstorms before 8am, then a chance of showers and thunderstorms between 8am and 2pm, then showers likely and possibly a thunderstorm after 2pm. Mostly cloudy, with a high near 85. Chance of precipitation is 60%.
Friday Night
 
Showers likely and possibly a thunderstorm before 8pm, then a chance of showers and thunderstorms after 8pm. Mostly cloudy, with a low around 73. Chance of precipitation is 60%.
Saturday
 
A chance of showers, then showers likely and possibly a thunderstorm after 2pm. Partly sunny, with a high near 91. Chance of precipitation is 60%.
Saturday Night
 
Showers likely and possibly a thunderstorm before 8pm, then a chance of showers and thunderstorms between 8pm and 2am. Partly cloudy, with a low around 73. Chance of precipitation is 60%.
Sunday
 
A chance of showers. Mostly sunny, with a high near 91. Chance of precipitation is 40%.
Sunday Night
 
A chance of showers. Partly cloudy, with a low around 72. Chance of precipitation is 30%.
Monday
 
A chance of showers and thunderstorms. Mostly sunny, with a high near 91. Chance of precipitation is 40%.

 

Forecast from NOAA-NWS for Philadelphia PA.

Area Weather Current Conditions
Nearby METAR Reports

KPHL - Philadelphia, Pennsylvania
Updated: Tue, 07-Jul-2020 2:54pm EDT
Mostly Cloudy
Mostly Cloudy
 Wind from SSE
Wind: SSE 8 mph , 13 km/h
Temperature: 86°F , 30°C
Heat Index: 91°F , 33°C
Dew Point: 70°F , 21°C
Humidity: 59%
Barometer: 30.05 inHg , 1017.6 hPa
Clouds: Mostly Cloudy
Visibility: 10 miles , 16 km
Cloud details: Partly Cloudy 3500 ft
Mostly Cloudy 4600 ft
Mostly Cloudy 6000 ft
2020/07/07 18:54 KPHL 071854Z 15007KT 10SM SCT035 BKN046 BKN060 30/21 A3005 RMK AO2 SLP174 T03000211
KMPO - Mt. Pocono, Pennsylvania
Updated: Tue, 07-Jul-2020 2:53pm EDT
Mostly Cloudy
Mostly Cloudy
 Wind from SSE
Wind: SSE 9 mph , 15 km/h
Temperature: 75°F , 24°C
Dew Point: 64°F , 18°C
Humidity: 69%
Barometer: 30.13 inHg , 1020.3 hPa
Clouds: Mostly Cloudy
Visibility: 10 miles , 16 km
Cloud details: Few Clouds 2400 ft
Mostly Cloudy 3500 ft
2020/07/07 18:53 KMPO 071853Z AUTO 16008KT 10SM FEW024 BKN035 24/18 A3013 RMK AO2 SLP193 T02440183
 
KACY - Atlantic City, New Jersey
Updated: Tue, 07-Jul-2020 2:54pm EDT
Clear
Clear
 Wind from SE
Wind: SE 10 mph , 17 km/h
Temperature: 86°F , 30°C
Heat Index: 92°F , 33°C
Dew Point: 72°F , 22°C
Humidity: 62%
Barometer: 30.07 inHg , 1018.3 hPa
Clouds: Clear
Visibility: 10 miles , 16 km
2020/07/07 18:54 KACY 071854Z AUTO 14009KT 10SM CLR 30/22 A3007 RMK AO2 SLP183 T03000217 TSNO
KMIV - Millville, New Jersey
Updated: Tue, 07-Jul-2020 2:54pm EDT
Partly Cloudy
Partly Cloudy
 Wind from varies
Wind: varies 5 mph , 7 km/h
Temperature: 82°F , 28°C
Heat Index: 86°F , 30°C
Dew Point: 72°F , 22°C
Humidity: 70%
Barometer: 30.07 inHg , 1018.3 hPa
Clouds: Partly Cloudy
Visibility: 10 miles , 16 km
Cloud details: Few Clouds 2600 ft
Partly Cloudy 3700 ft
2020/07/07 18:54 KMIV 071854Z AUTO VRB04KT 10SM FEW026 SCT037 28/22 A3007 RMK AO2 SLP179 T02830217
 
KWWD - Wildwood, New Jersey
Updated: Tue, 07-Jul-2020 2:56pm EDT
Overcast
Overcast
 Wind from SSE
Wind: SSE 12 mph , 19 km/h
Temperature: 81°F , 27°C
Heat Index: 86°F , 30°C
Dew Point: 73°F , 23°C
Humidity: 79%
Barometer: 30.09 inHg , 1019 hPa
Clouds: Overcast
Visibility: 10 miles , 16 km
Cloud details: Mostly Cloudy 5500 ft
Overcast 7000 ft
2020/07/07 18:56 KWWD 071856Z AUTO 15010KT 10SM BKN055 OVC070 27/23 A3009 RMK AO2 SLP189 T02720228
KDOV - Dover Afb, Delaware
Updated: Tue, 07-Jul-2020 2:56pm EDT
Few Clouds
Few Clouds
 Wind from E
Wind: E 9 mph , 15 km/h
Temperature: 84°F , 29°C
Heat Index: 90°F , 32°C
Dew Point: 73°F , 23°C
Humidity: 70%
Barometer: 30.05 inHg , 1017.6 hPa
Clouds: Few Clouds
Visibility: 10 miles , 16 km
Cloud details: Few Clouds 4400 ft
Few Clouds 20000 ft
2020/07/07 18:56 KDOV 071856Z 10008KT 10SM FEW044 FEW200 29/23 A3005 RMK AO2A SLP179 T02900232 $
Severe Weather Map